CDT,Max TemperatureF,Mean TemperatureF,Min TemperatureF,Max Dew PointF,MeanDew PointF,Min DewpointF,Max Humidity, Mean Humidity, Min Humidity, Max Sea Level PressureIn, Mean Sea Level PressureIn, Min Sea Level PressureIn, Max VisibilityMiles, Mean VisibilityMiles, Min VisibilityMiles, Max Wind SpeedMPH, Mean Wind SpeedMPH, Max Gust SpeedMPH,PrecipitationIn, CloudCover, Events, WindDirDegrees
2011-10-1,69,53,37,36,32,28,81,51,23,30.25,30.19,30.09,10,10,10,22,13,28,0.00,0,,150
2011-10-2,84,64,44,39,34,30,66,40,14,30.10,30.06,30.02,10,10,10,17,11,21,0.00,0,,157
2011-10-3,82,63,44,39,36,28,76,43,14,30.11,30.08,30.04,10,10,10,20,10,24,0.00,0,,150
2011-10-4,84,67,50,43,37,36,58,39,19,30.08,30.02,29.93,10,10,10,24,11,29,0.00,0,,139
2011-10-5,86,70,55,46,42,34,67,43,15,29.97,29.94,29.89,10,10,10,24,12,33,0.00,0,,148
2011-10-6,80,68,55,39,36,30,51,34,17,29.95,29.90,29.81,10,10,10,34,16,47,0.00,1,,145
2011-10-7,80,72,64,57,46,37,68,42,31,29.81,29.74,29.66,10,10,10,36,21,46,0.00,3,Rain-Thunderstorm,174
2011-10-8,62,60,57,54,51,46,88,72,55,30.12,29.98,29.81,10,10,10,13,6,18,0.08,7,Rain,219
2011-10-9,73,63,53,59,52,46,88,70,53,30.20,30.12,30.01,10,10,10,17,8,20,0.00,5,Rain,81
2011-10-10,66,58,51,55,49,45,88,72,49,30.01,29.91,29.83,10,10,7,20,12,23,0.08,3,Rain,162
2011-10-11,77,62,46,52,46,36,93,65,22,29.81,29.77,29.70,10,10,10,20,11,24,0.00,0,,164
2011-10-12,66,60,55,55,53,50,94,81,60,29.72,29.69,29.67,10,9,5,12,7,,0.23,5,Rain-Thunderstorm,175
2011-10-13,60,53,46,45,42,37,87,71,42,29.73,29.71,29.67,10,10,7,21,12,28,0.01,3,Rain-Thunderstorm,307
2011-10-14,53,48,42,45,40,36,87,76,58,29.87,29.79,29.70,10,10,7,24,13,30,0.02,6,Rain,309
2011-10-15,55,46,37,39,35,34,87,69,44,29.90,29.87,29.83,10,10,10,18,12,24,0.00,1,Rain,294
2011-10-16,53,46,39,37,32,25,87,64,35,29.93,29.89,29.85,10,10,10,28,13,34,0.00,1,,294
2011-10-17,57,45,33,30,27,19,81,53,23,29.92,29.90,29.88,10,10,10,29,15,37,0.00,0,,301
2011-10-18,46,37,26,28,24,16,75,57,29,30.13,30.05,29.95,10,10,10,26,15,36,0.00,2,,336
2011-10-19,46,34,23,28,24,18,80,68,50,30.18,30.14,30.11,10,10,10,15,10,20,0.00,3,,345
2011-10-20,51,35,19,34,25,16,93,70,38,30.09,30.04,29.98,10,10,10,12,6,17,0.00,0,,316
2011-10-21,60,43,26,37,29,19,86,61,36,30.05,29.97,29.94,10,10,4,17,7,22,0.00,0,,240
2011-10-22,62,45,28,37,32,27,93,66,32,30.12,30.06,29.95,10,9,1,15,5,20,0.00,1,,214
2011-10-23,57,47,37,43,38,30,93,72,38,29.91,29.83,29.79,10,10,5,20,7,24,0.00,1,,266
2011-10-24,55,44,33,41,36,30,93,74,54,30.00,29.97,29.93,10,10,7,7,4,,0.00,3,Rain,303
2011-10-25,50,42,33,37,35,30,100,65,47,30.06,29.96,29.89,10,10,10,16,11,22,0.00,5,,55
2011-10-26,48,44,39,37,35,30,93,76,50,30.12,30.07,30.05,10,9,5,16,5,16,0.03,7,Rain,327
2011-10-27,51,38,24,32,24,18,93,66,28,30.07,30.04,30.01,10,10,2,12,5,,0.00,1,,273
2011-10-28,51,38,26,28,23,18,93,56,26,30.06,30.03,29.98,10,10,10,21,9,28,0.00,2,,291
2011-10-29,51,35,19,27,19,12,86,54,24,30.04,29.94,29.81,10,10,10,18,7,23,0.00,1,,146
2011-10-30,42,38,33,37,32,21,93,75,42,29.98,29.86,29.77,10,10,7,17,12,24,0.09,7,Rain,298
2011-10-31,55,38,21,34,27,19,93,70,31,29.99,29.92,29.79,10,9,7,17,6,24,0.00,0,,170